sensor_id;sensor_type;location;lat;lon;timestamp;pressure;altitude;pressure_sealevel;temperature;humidity
65754;BME280;52488;47.502;18.940;2023-01-29T00:00:53;98683.81;;;-0.99;91.98
65754;BME280;52488;47.502;18.940;2023-01-29T00:02:04;98680.84;;;-0.95;91.86
65754;BME280;52488;47.502;18.940;2023-01-29T00:03:07;98690.19;;;-0.91;91.60
65754;BME280;52488;47.502;18.940;2023-01-29T00:04:10;98684.56;;;-0.87;91.37
65754;BME280;52488;47.502;18.940;2023-01-29T00:05:13;98692.88;;;-0.91;91.24
65754;BME280;52488;47.502;18.940;2023-01-29T00:06:29;98684.28;;;-0.95;91.35
65754;BME280;52488;47.502;18.940;2023-01-29T00:07:33;98692.13;;;-0.97;91.69
65754;BME280;52488;47.502;18.940;2023-01-29T00:08:36;98689.22;;;-0.99;91.75
65754;BME280;52488;47.502;18.940;2023-01-29T00:09:40;98690.44;;;-1.00;91.77
65754;BME280;52488;47.502;18.940;2023-01-29T00:10:43;98688.47;;;-0.99;91.78
65754;BME280;52488;47.502;18.940;2023-01-29T00:11:46;98692.38;;;-1.00;91.79
65754;BME280;52488;47.502;18.940;2023-01-29T00:12:49;98695.84;;;-1.00;91.84
65754;BME280;52488;47.502;18.940;2023-01-29T00:13:53;98692.38;;;-1.00;91.85
65754;BME280;52488;47.502;18.940;2023-01-29T00:14:56;98700.97;;;-1.02;91.82
65754;BME280;52488;47.502;18.940;2023-01-29T00:16:00;98693.38;;;-1.03;91.86
65754;BME280;52488;47.502;18.940;2023-01-29T00:17:03;98699.25;;;-1.05;91.93
65754;BME280;52488;47.502;18.940;2023-01-29T00:18:07;98701.19;;;-1.06;92.01
65754;BME280;52488;47.502;18.940;2023-01-29T00:19:11;98700.97;;;-1.02;92.06
65754;BME280;52488;47.502;18.940;2023-01-29T00:20:14;98705.13;;;-1.01;92.20
65754;BME280;52488;47.502;18.940;2023-01-29T00:21:19;98696.56;;;-0.99;92.25
65754;BME280;52488;47.502;18.940;2023-01-29T00:22:23;98697.28;;;-0.99;92.28
65754;BME280;52488;47.502;18.940;2023-01-29T00:23:27;98701.22;;;-1.00;92.34
65754;BME280;52488;47.502;18.940;2023-01-29T00:24:30;98712.00;;;-1.00;92.41
65754;BME280;52488;47.502;18.940;2023-01-29T00:25:33;98707.34;;;-0.99;92.51
65754;BME280;52488;47.502;18.940;2023-01-29T00:26:36;98706.13;;;-0.98;92.55
65754;BME280;52488;47.502;18.940;2023-01-29T00:27:41;98709.06;;;-0.96;92.58
65754;BME280;52488;47.502;18.940;2023-01-29T00:28:45;98712.03;;;-0.94;92.56
65754;BME280;52488;47.502;18.940;2023-01-29T00:29:48;98716.91;;;-0.93;92.48
65754;BME280;52488;47.502;18.940;2023-01-29T00:31:19;98717.16;;;-0.91;92.40
65754;BME280;52488;47.502;18.940;2023-01-29T00:32:23;98719.34;;;-0.89;92.40
65754;BME280;52488;47.502;18.940;2023-01-29T00:33:28;98718.63;;;-0.90;92.37
65754;BME280;52488;47.502;18.940;2023-01-29T00:34:35;98714.97;;;-0.87;92.38
65754;BME280;52488;47.502;18.940;2023-01-29T00:35:38;98713.97;;;-0.89;92.40
65754;BME280;52488;47.502;18.940;2023-01-29T00:36:42;98709.56;;;-0.87;92.44
65754;BME280;52488;47.502;18.940;2023-01-29T00:37:47;98713.72;;;-0.86;92.59
65754;BME280;52488;47.502;18.940;2023-01-29T00:38:57;98715.47;;;-0.83;92.64
65754;BME280;52488;47.502;18.940;2023-01-29T00:40:00;98713.22;;;-0.78;92.62
65754;BME280;52488;47.502;18.940;2023-01-29T00:41:14;98720.84;;;-0.77;92.61
65754;BME280;52488;47.502;18.940;2023-01-29T00:42:36;98727.00;;;-0.76;92.58
65754;BME280;52488;47.502;18.940;2023-01-29T00:43:59;98722.31;;;-0.76;92.52
65754;BME280;52488;47.502;18.940;2023-01-29T00:45:21;98714.97;;;-0.75;92.60
65754;BME280;52488;47.502;18.940;2023-01-29T00:46:24;98722.06;;;-0.72;92.72
65754;BME280;52488;47.502;18.940;2023-01-29T00:47:27;98724.28;;;-0.71;92.76
65754;BME280;52488;47.502;18.940;2023-01-29T00:48:36;98722.31;;;-0.70;92.72
65754;BME280;52488;47.502;18.940;2023-01-29T00:49:39;98729.94;;;-0.69;92.71
65754;BME280;52488;47.502;18.940;2023-01-29T00:50:42;98727.97;;;-0.68;92.73
65754;BME280;52488;47.502;18.940;2023-01-29T00:51:45;98727.47;;;-0.67;92.57
65754;BME280;52488;47.502;18.940;2023-01-29T00:53:08;98724.75;;;-0.67;92.49
65754;BME280;52488;47.502;18.940;2023-01-29T00:54:11;98730.94;;;-0.66;92.59
65754;BME280;52488;47.502;18.940;2023-01-29T00:55:14;98736.31;;;-0.66;92.67
65754;BME280;52488;47.502;18.940;2023-01-29T00:56:17;98725.53;;;-0.66;92.64
65754;BME280;52488;47.502;18.940;2023-01-29T00:57:21;98724.75;;;-0.67;92.53
65754;BME280;52488;47.502;18.940;2023-01-29T00:58:24;98720.13;;;-0.66;92.39
65754;BME280;52488;47.502;18.940;2023-01-29T00:59:30;98725.53;;;-0.66;92.25
65754;BME280;52488;47.502;18.940;2023-01-29T01:00:33;98721.34;;;-0.67;92.10
65754;BME280;52488;47.502;18.940;2023-01-29T01:01:36;98718.63;;;-0.67;91.99
65754;BME280;52488;47.502;18.940;2023-01-29T01:02:58;98721.09;;;-0.69;91.96
65754;BME280;52488;47.502;18.940;2023-01-29T01:04:09;98716.94;;;-0.70;91.97
65754;BME280;52488;47.502;18.940;2023-01-29T01:05:17;98716.66;;;-0.72;91.90
65754;BME280;52488;47.502;18.940;2023-01-29T01:06:20;98716.44;;;-0.74;91.95
65754;BME280;52488;47.502;18.940;2023-01-29T01:07:26;98720.37;;;-0.75;91.83
65754;BME280;52488;47.502;18.940;2023-01-29T01:08:31;98718.16;;;-0.77;91.70
65754;BME280;52488;47.502;18.940;2023-01-29T01:09:53;98719.87;;;-0.80;91.61
65754;BME280;52488;47.502;18.940;2023-01-29T01:11:20;98715.47;;;-0.83;91.67
65754;BME280;52488;47.502;18.940;2023-01-29T01:12:23;98713.00;;;-0.86;91.67
65754;BME280;52488;47.502;18.940;2023-01-29T01:13:30;98722.31;;;-0.87;91.68
65754;BME280;52488;47.502;18.940;2023-01-29T01:14:33;98713.00;;;-0.92;91.49
65754;BME280;52488;47.502;18.940;2023-01-29T01:15:39;98715.69;;;-0.97;91.29
65754;BME280;52488;47.502;18.940;2023-01-29T01:16:44;98709.06;;;-1.02;91.27
65754;BME280;52488;47.502;18.940;2023-01-29T01:17:51;98707.34;;;-1.05;91.25
65754;BME280;52488;47.502;18.940;2023-01-29T01:18:55;98711.00;;;-1.08;91.27
65754;BME280;52488;47.502;18.940;2023-01-29T01:19:59;98717.62;;;-1.15;91.21
65754;BME280;52488;47.502;18.940;2023-01-29T01:21:02;98721.78;;;-1.19;91.17
65754;BME280;52488;47.502;18.940;2023-01-29T01:22:06;98725.44;;;-1.22;91.31
65754;BME280;52488;47.502;18.940;2023-01-29T01:23:09;98723.72;;;-1.25;91.42
65754;BME280;52488;47.502;18.940;2023-01-29T01:24:12;98720.78;;;-1.27;91.42
65754;BME280;52488;47.502;18.940;2023-01-29T01:25:15;98731.28;;;-1.29;91.42
65754;BME280;52488;47.502;18.940;2023-01-29T01:26:20;98721.00;;;-1.31;91.44
65754;BME280;52488;47.502;18.940;2023-01-29T01:27:23;98723.94;;;-1.35;91.48
65754;BME280;52488;47.502;18.940;2023-01-29T01:28:29;98721.00;;;-1.37;91.51
65754;BME280;52488;47.502;18.940;2023-01-29T01:29:32;98723.19;;;-1.41;91.44
65754;BME280;52488;47.502;18.940;2023-01-29T01:30:36;98724.16;;;-1.44;91.43
65754;BME280;52488;47.502;18.940;2023-01-29T01:31:39;98720.94;;;-1.48;91.47
65754;BME280;52488;47.502;18.940;2023-01-29T01:32:42;98732.22;;;-1.49;91.59
65754;BME280;52488;47.502;18.940;2023-01-29T01:33:45;98726.56;;;-1.51;91.70
65754;BME280;52488;47.502;18.940;2023-01-29T01:34:51;98730.97;;;-1.54;91.79
65754;BME280;52488;47.502;18.940;2023-01-29T01:35:54;98724.84;;;-1.54;91.86
65754;BME280;52488;47.502;18.940;2023-01-29T01:36:58;98721.44;;;-1.55;91.94
65754;BME280;52488;47.502;18.940;2023-01-29T01:38:01;98724.38;;;-1.53;91.96
65754;BME280;52488;47.502;18.940;2023-01-29T01:39:07;98725.09;;;-1.52;91.98
65754;BME280;52488;47.502;18.940;2023-01-29T01:40:17;98722.91;;;-1.54;92.00
65754;BME280;52488;47.502;18.940;2023-01-29T01:41:21;98719.94;;;-1.56;92.07
65754;BME280;52488;47.502;18.940;2023-01-29T01:42:28;98729.25;;;-1.57;92.22
65754;BME280;52488;47.502;18.940;2023-01-29T01:43:57;98730.72;;;-1.56;92.42
65754;BME280;52488;47.502;18.940;2023-01-29T01:45:03;98730.47;;;-1.58;92.55
65754;BME280;52488;47.502;18.940;2023-01-29T01:46:08;98739.28;;;-1.57;92.54
65754;BME280;52488;47.502;18.940;2023-01-29T01:47:11;98731.94;;;-1.57;92.44
65754;BME280;52488;47.502;18.940;2023-01-29T01:48:23;98728.50;;;-1.57;92.31
65754;BME280;52488;47.502;18.940;2023-01-29T01:49:28;98730.97;;;-1.60;92.22
65754;BME280;52488;47.502;18.940;2023-01-29T01:50:39;98736.06;;;-1.62;92.13
65754;BME280;52488;47.502;18.940;2023-01-29T01:51:47;98738.28;;;-1.66;92.10
65754;BME280;52488;47.502;18.940;2023-01-29T01:52:57;98749.28;;;-1.69;92.14
65754;BME280;52488;47.502;18.940;2023-01-29T01:54:11;98740.69;;;-1.73;92.19
65754;BME280;52488;47.502;18.940;2023-01-29T01:55:19;98738.47;;;-1.75;92.19
65754;BME280;52488;47.502;18.940;2023-01-29T01:56:27;98741.91;;;-1.74;92.10
65754;BME280;52488;47.502;18.940;2023-01-29T01:57:44;98733.59;;;-1.76;92.05
65754;BME280;52488;47.502;18.940;2023-01-29T01:58:55;98728.63;;;-1.83;92.14
65754;BME280;52488;47.502;18.940;2023-01-29T02:00:05;98727.91;;;-1.84;92.41
65754;BME280;52488;47.502;18.940;2023-01-29T02:01:12;98732.81;;;-1.82;92.62
65754;BME280;52488;47.502;18.940;2023-01-29T02:02:16;98736.25;;;-1.82;92.54
65754;BME280;52488;47.502;18.940;2023-01-29T02:03:46;98735.50;;;-1.82;92.46
65754;BME280;52488;47.502;18.940;2023-01-29T02:05:11;98739.16;;;-1.86;92.60
65754;BME280;52488;47.502;18.940;2023-01-29T02:06:34;98732.09;;;-1.83;92.45
65754;BME280;52488;47.502;18.940;2023-01-29T02:07:57;98730.31;;;-1.92;92.12
65754;BME280;52488;47.502;18.940;2023-01-29T02:09:26;98740.06;;;-2.00;92.11
65754;BME280;52488;47.502;18.940;2023-01-29T02:10:43;98744.94;;;-2.04;92.28
65754;BME280;52488;47.502;18.940;2023-01-29T02:11:46;98739.28;;;-2.06;92.26
65754;BME280;52488;47.502;18.940;2023-01-29T02:12:50;98733.84;;;-2.12;92.16
65754;BME280;52488;47.502;18.940;2023-01-29T02:13:53;98738.00;;;-2.16;92.22
65754;BME280;52488;47.502;18.940;2023-01-29T02:14:56;98741.44;;;-2.16;92.41
65754;BME280;52488;47.502;18.940;2023-01-29T02:15:59;98746.81;;;-2.16;92.51
65754;BME280;52488;47.502;18.940;2023-01-29T02:17:02;98747.28;;;-2.17;92.71
65754;BME280;52488;47.502;18.940;2023-01-29T02:18:06;98749.03;;;-2.14;92.72
65754;BME280;52488;47.502;18.940;2023-01-29T02:19:23;98748.50;;;-2.18;92.61
65754;BME280;52488;47.502;18.940;2023-01-29T02:20:31;98751.44;;;-2.22;92.56
65754;BME280;52488;47.502;18.940;2023-01-29T02:23:30;98748.47;;;-2.24;92.82
65754;BME280;52488;47.502;18.940;2023-01-29T02:26:31;98752.13;;;-2.27;92.88
65754;BME280;52488;47.502;18.940;2023-01-29T02:30:59;98752.78;;;-2.37;92.82
65754;BME280;52488;47.502;18.940;2023-01-29T02:32:36;98747.62;;;-2.41;92.92
65754;BME280;52488;47.502;18.940;2023-01-29T02:35:15;98758.59;;;-2.45;92.88
65754;BME280;52488;47.502;18.940;2023-01-29T02:36:50;98751.72;;;-2.46;92.93
65754;BME280;52488;47.502;18.940;2023-01-29T02:38:13;98763.19;;;-2.51;92.95
65754;BME280;52488;47.502;18.940;2023-01-29T02:40:04;98765.13;;;-2.51;93.19
65754;BME280;52488;47.502;18.940;2023-01-29T02:40:50;98755.84;;;-2.50;93.40
65754;BME280;52488;47.502;18.940;2023-01-29T02:42:15;98758.34;;;-2.47;93.17
65754;BME280;52488;47.502;18.940;2023-01-29T02:44:47;98762.25;;;-2.48;93.38
65754;BME280;52488;47.502;18.940;2023-01-29T02:47:32;98767.13;;;-2.46;93.55
65754;BME280;52488;47.502;18.940;2023-01-29T02:50:05;98768.84;;;-2.49;93.73
65754;BME280;52488;47.502;18.940;2023-01-29T02:51:23;98760.78;;;-2.49;94.03
65754;BME280;52488;47.502;18.940;2023-01-29T02:52:37;98764.94;;;-2.48;94.37
65754;BME280;52488;47.502;18.940;2023-01-29T02:53:53;98773.25;;;-2.46;94.23
65754;BME280;52488;47.502;18.940;2023-01-29T02:56:29;98770.06;;;-2.50;93.79
65754;BME280;52488;47.502;18.940;2023-01-29T02:57:39;98769.25;;;-2.56;93.94
65754;BME280;52488;47.502;18.940;2023-01-29T02:58:49;98777.84;;;-2.52;94.17
65754;BME280;52488;47.502;18.940;2023-01-29T02:59:57;98782.03;;;-2.51;94.35
65754;BME280;52488;47.502;18.940;2023-01-29T03:01:10;98780.06;;;-2.50;94.23
65754;BME280;52488;47.502;18.940;2023-01-29T03:02:22;98777.12;;;-2.52;94.12
65754;BME280;52488;47.502;18.940;2023-01-29T03:03:41;98779.31;;;-2.51;94.04
65754;BME280;52488;47.502;18.940;2023-01-29T03:04:50;98769.25;;;-2.56;93.92
65754;BME280;52488;47.502;18.940;2023-01-29T03:06:19;98780.50;;;-2.57;93.89
65754;BME280;52488;47.502;18.940;2023-01-29T03:07:31;98778.78;;;-2.60;94.00
65754;BME280;52488;47.502;18.940;2023-01-29T03:08:53;98772.66;;;-2.61;94.19
65754;BME280;52488;47.502;18.940;2023-01-29T03:09:58;98775.59;;;-2.59;94.34
65754;BME280;52488;47.502;18.940;2023-01-29T03:11:05;98775.59;;;-2.59;94.39
65754;BME280;52488;47.502;18.940;2023-01-29T03:12:18;98774.87;;;-2.59;94.50
65754;BME280;52488;47.502;18.940;2023-01-29T03:13:44;98775.59;;;-2.59;94.54
65754;BME280;52488;47.502;18.940;2023-01-29T03:14:50;98777.06;;;-2.58;94.69
65754;BME280;52488;47.502;18.940;2023-01-29T03:16:33;98781.50;;;-2.55;94.89
65754;BME280;52488;47.502;18.940;2023-01-29T03:17:46;98779.31;;;-2.51;95.14
65754;BME280;52488;47.502;18.940;2023-01-29T03:19:06;98774.22;;;-2.49;95.24
65754;BME280;52488;47.502;18.940;2023-01-29T03:20:15;98781.34;;;-2.46;95.43
65754;BME280;52488;47.502;18.940;2023-01-29T03:21:32;98773.53;;;-2.44;95.60
65754;BME280;52488;47.502;18.940;2023-01-29T03:22:56;98777.25;;;-2.35;95.76
65754;BME280;52488;47.502;18.940;2023-01-29T03:24:04;98779.47;;;-2.34;95.87
65754;BME280;52488;47.502;18.940;2023-01-29T03:25:27;98779.75;;;-2.32;95.89
65754;BME280;52488;47.502;18.940;2023-01-29T03:26:49;98781.00;;;-2.27;95.89
65754;BME280;52488;47.502;18.940;2023-01-29T03:28:16;98783.94;;;-2.25;95.95
65754;BME280;52488;47.502;18.940;2023-01-29T03:29:39;98785.66;;;-2.22;95.92
65754;BME280;52488;47.502;18.940;2023-01-29T03:31:05;98784.72;;;-2.19;96.08
65754;BME280;52488;47.502;18.940;2023-01-29T03:32:29;98786.72;;;-2.14;96.21
65754;BME280;52488;47.502;18.940;2023-01-29T03:33:41;98792.62;;;-2.10;96.25
65754;BME280;52488;47.502;18.940;2023-01-29T03:34:51;98792.38;;;-2.06;96.33
65754;BME280;52488;47.502;18.940;2023-01-29T03:36:00;98781.41;;;-2.03;96.42
65754;BME280;52488;47.502;18.940;2023-01-29T03:38:16;98788.56;;;-1.94;96.17
65754;BME280;52488;47.502;18.940;2023-01-29T03:39:21;98791.25;;;-1.94;96.13
65754;BME280;52488;47.502;18.940;2023-01-29T03:40:28;98790.53;;;-1.89;96.07
65754;BME280;52488;47.502;18.940;2023-01-29T03:41:52;98793.03;;;-1.86;96.02
65754;BME280;52488;47.502;18.940;2023-01-29T03:43:22;98798.66;;;-1.83;96.10
65754;BME280;52488;47.502;18.940;2023-01-29T03:44:57;98792.56;;;-1.78;96.01
65754;BME280;52488;47.502;18.940;2023-01-29T03:46:09;98793.09;;;-1.74;96.06
65754;BME280;52488;47.502;18.940;2023-01-29T03:48:59;98797.31;;;-1.62;95.71
65754;BME280;52488;47.502;18.940;2023-01-29T03:50:11;98807.38;;;-1.57;95.24
65754;BME280;52488;47.502;18.940;2023-01-29T03:53:00;98809.31;;;-1.63;95.31
65754;BME280;52488;47.502;18.940;2023-01-29T03:55:53;98795.13;;;-1.58;95.50
65754;BME280;52488;47.502;18.940;2023-01-29T03:57:17;98798.34;;;-1.54;95.46
65754;BME280;52488;47.502;18.940;2023-01-29T03:59:49;98790.53;;;-1.46;95.27
65754;BME280;52488;47.502;18.940;2023-01-29T04:01:02;98793.00;;;-1.43;94.92
65754;BME280;52488;47.502;18.940;2023-01-29T04:02:19;98798.88;;;-1.44;94.76
65754;BME280;52488;47.502;18.940;2023-01-29T04:03:41;98797.88;;;-1.47;94.96
65754;BME280;52488;47.502;18.940;2023-01-29T04:04:46;98800.81;;;-1.45;95.08
65754;BME280;52488;47.502;18.940;2023-01-29T04:07:15;98803.78;;;-1.43;95.23
65754;BME280;52488;47.502;18.940;2023-01-29T04:08:26;98797.41;;;-1.40;95.01
65754;BME280;52488;47.502;18.940;2023-01-29T04:09:35;98798.91;;;-1.39;94.79
65754;BME280;52488;47.502;18.940;2023-01-29T04:10:40;98795.72;;;-1.37;94.67
65754;BME280;52488;47.502;18.940;2023-01-29T04:11:56;98796.69;;;-1.35;94.47
65754;BME280;52488;47.502;18.940;2023-01-29T04:13:05;98795.00;;;-1.38;94.41
65754;BME280;52488;47.502;18.940;2023-01-29T04:14:11;98796.47;;;-1.31;94.30
65754;BME280;52488;47.502;18.940;2023-01-29T04:15:16;98799.47;;;-1.18;93.88
65754;BME280;52488;47.502;18.940;2023-01-29T04:16:25;98804.13;;;-1.13;93.04
65754;BME280;52488;47.502;18.940;2023-01-29T04:17:35;98802.66;;;-1.14;92.48
65754;BME280;52488;47.502;18.940;2023-01-29T04:18:44;98800.94;;;-1.11;92.06
65754;BME280;52488;47.502;18.940;2023-01-29T04:19:48;98800.94;;;-1.17;92.05
65754;BME280;52488;47.502;18.940;2023-01-29T04:20:51;98800.91;;;-1.22;92.32
65754;BME280;52488;47.502;18.940;2023-01-29T04:22:11;98806.56;;;-1.26;92.72
65754;BME280;52488;47.502;18.940;2023-01-29T04:23:22;98808.50;;;-1.26;93.10
65754;BME280;52488;47.502;18.940;2023-01-29T04:24:26;98803.34;;;-1.24;93.16
65754;BME280;52488;47.502;18.940;2023-01-29T04:25:35;98800.91;;;-1.22;93.08
65754;BME280;52488;47.502;18.940;2023-01-29T04:29:39;98801.41;;;-1.24;92.64
65754;BME280;52488;47.502;18.940;2023-01-29T04:32:02;98788.19;;;-1.22;92.40
65754;BME280;52488;47.502;18.940;2023-01-29T04:34:28;98789.19;;;-1.08;92.28
65754;BME280;52488;47.502;18.940;2023-01-29T04:39:37;98797.06;;;-1.04;90.77
65754;BME280;52488;47.502;18.940;2023-01-29T04:40:50;98797.28;;;-1.08;90.72
65754;BME280;52488;47.502;18.940;2023-01-29T04:43:49;98801.22;;;-1.09;90.93
65754;BME280;52488;47.502;18.940;2023-01-29T04:46:19;98798.56;;;-0.98;89.94
65754;BME280;52488;47.502;18.940;2023-01-29T04:50:34;98799.53;;;-0.95;89.54
65754;BME280;52488;47.502;18.940;2023-01-29T04:52:04;98799.50;;;-1.01;89.24
65754;BME280;52488;47.502;18.940;2023-01-29T04:56:32;98807.13;;;-1.05;88.89
65754;BME280;52488;47.502;18.940;2023-01-29T04:57:57;98805.41;;;-1.02;88.99
65754;BME280;52488;47.502;18.940;2023-01-29T04:59:13;98802.50;;;-0.93;88.06
65754;BME280;52488;47.502;18.940;2023-01-29T05:00:25;98799.28;;;-1.03;88.50
65754;BME280;52488;47.502;18.940;2023-01-29T05:01:30;98810.03;;;-1.09;88.99
65754;BME280;52488;47.502;18.940;2023-01-29T05:02:37;98795.56;;;-1.11;89.19
65754;BME280;52488;47.502;18.940;2023-01-29T05:03:44;98786.53;;;-1.02;89.12
65754;BME280;52488;47.502;18.940;2023-01-29T05:04:48;98800.28;;;-0.84;88.12
65754;BME280;52488;47.502;18.940;2023-01-29T05:05:54;98792.97;;;-0.77;87.18
65754;BME280;52488;47.502;18.940;2023-01-29T05:07:05;98791.47;;;-0.78;86.61
65754;BME280;52488;47.502;18.940;2023-01-29T05:08:13;98789.25;;;-0.86;86.88
65754;BME280;52488;47.502;18.940;2023-01-29T05:09:18;98797.84;;;-0.93;87.02
65754;BME280;52488;47.502;18.940;2023-01-29T05:10:22;98791.41;;;-1.01;87.42
65754;BME280;52488;47.502;18.940;2023-01-29T05:11:29;98790.25;;;-0.89;87.29
65754;BME280;52488;47.502;18.940;2023-01-29T05:12:35;98789.47;;;-0.95;87.31
65754;BME280;52488;47.502;18.940;2023-01-29T05:13:40;98792.66;;;-0.96;87.26
65754;BME280;52488;47.502;18.940;2023-01-29T05:14:45;98795.38;;;-0.96;87.16
65754;BME280;52488;47.502;18.940;2023-01-29T05:17:17;98801.75;;;-0.94;86.59
65754;BME280;52488;47.502;18.940;2023-01-29T05:18:22;98798.56;;;-0.98;86.88
65754;BME280;52488;47.502;18.940;2023-01-29T05:19:25;98803.44;;;-1.02;87.21
65754;BME280;52488;47.502;18.940;2023-01-29T05:20:34;98797.53;;;-1.06;87.35
65754;BME280;52488;47.502;18.940;2023-01-29T05:21:40;98798.03;;;-1.08;87.58
65754;BME280;52488;47.502;18.940;2023-01-29T05:22:45;98786.75;;;-1.06;87.60
65754;BME280;52488;47.502;18.940;2023-01-29T05:24:10;98793.62;;;-1.05;87.76
65754;BME280;52488;47.502;18.940;2023-01-29T05:25:21;98796.34;;;-1.05;88.03
65754;BME280;52488;47.502;18.940;2023-01-29T05:26:26;98793.62;;;-1.05;88.24
65754;BME280;52488;47.502;18.940;2023-01-29T05:27:49;98787.97;;;-1.07;88.44
65754;BME280;52488;47.502;18.940;2023-01-29T05:29:11;98790.44;;;-1.03;88.67
65754;BME280;52488;47.502;18.940;2023-01-29T05:30:15;98796.06;;;-1.01;88.64
65754;BME280;52488;47.502;18.940;2023-01-29T05:31:19;98794.13;;;-1.01;88.72
65754;BME280;52488;47.502;18.940;2023-01-29T05:32:22;98793.38;;;-1.01;88.97
65754;BME280;52488;47.502;18.940;2023-01-29T05:33:30;98787.25;;;-1.02;89.15
65754;BME280;52488;47.502;18.940;2023-01-29T05:34:33;98796.34;;;-0.99;89.27
65754;BME280;52488;47.502;18.940;2023-01-29T05:35:36;98799.28;;;-0.97;89.27
65754;BME280;52488;47.502;18.940;2023-01-29T05:36:39;98796.34;;;-0.99;89.30
65754;BME280;52488;47.502;18.940;2023-01-29T05:37:42;98796.34;;;-0.99;89.37
65754;BME280;52488;47.502;18.940;2023-01-29T05:39:06;98800.50;;;-0.98;89.59
65754;BME280;52488;47.502;18.940;2023-01-29T05:40:09;98804.19;;;-0.96;89.60
65754;BME280;52488;47.502;18.940;2023-01-29T05:41:13;98801.50;;;-0.85;89.59
65754;BME280;52488;47.502;18.940;2023-01-29T05:42:18;98809.38;;;-0.87;89.22
65754;BME280;52488;47.502;18.940;2023-01-29T05:43:23;98798.56;;;-0.92;89.00
65754;BME280;52488;47.502;18.940;2023-01-29T05:44:26;98796.09;;;-0.96;89.06
65754;BME280;52488;47.502;18.940;2023-01-29T05:45:30;98793.16;;;-0.98;89.25
65754;BME280;52488;47.502;18.940;2023-01-29T05:46:33;98802.97;;;-0.95;89.24
65754;BME280;52488;47.502;18.940;2023-01-29T05:47:36;98802.22;;;-0.95;89.28
65754;BME280;52488;47.502;18.940;2023-01-29T05:48:39;98800.03;;;-0.97;89.32
65754;BME280;52488;47.502;18.940;2023-01-29T05:49:42;98798.78;;;-0.96;89.40
65754;BME280;52488;47.502;18.940;2023-01-29T05:50:45;98805.44;;;-0.91;89.40
65754;BME280;52488;47.502;18.940;2023-01-29T05:51:48;98815.00;;;-0.90;89.24
65754;BME280;52488;47.502;18.940;2023-01-29T05:52:56;98803.22;;;-0.93;89.28
65754;BME280;52488;47.502;18.940;2023-01-29T05:53:59;98805.66;;;-0.95;89.13
65754;BME280;52488;47.502;18.940;2023-01-29T05:55:02;98811.31;;;-0.93;89.10
65754;BME280;52488;47.502;18.940;2023-01-29T05:56:06;98807.38;;;-0.92;89.10
65754;BME280;52488;47.502;18.940;2023-01-29T05:57:09;98808.12;;;-0.91;89.17
65754;BME280;52488;47.502;18.940;2023-01-29T05:58:12;98802.00;;;-0.92;89.12
65754;BME280;52488;47.502;18.940;2023-01-29T05:59:15;98811.31;;;-0.93;89.21
65754;BME280;52488;47.502;18.940;2023-01-29T06:00:19;98807.88;;;-0.93;89.29
65754;BME280;52488;47.502;18.940;2023-01-29T06:01:24;98810.81;;;-0.91;89.38
65754;BME280;52488;47.502;18.940;2023-01-29T06:02:29;98810.81;;;-0.91;89.33
65754;BME280;52488;47.502;18.940;2023-01-29T06:03:33;98813.75;;;-0.89;89.31
65754;BME280;52488;47.502;18.940;2023-01-29T06:04:36;98811.56;;;-0.85;89.25
65754;BME280;52488;47.502;18.940;2023-01-29T06:05:39;98819.16;;;-0.84;89.23
65754;BME280;52488;47.502;18.940;2023-01-29T06:06:43;98815.75;;;-0.84;89.11
65754;BME280;52488;47.502;18.940;2023-01-29T06:07:46;98812.06;;;-0.87;89.09
65754;BME280;52488;47.502;18.940;2023-01-29T06:08:49;98807.16;;;-0.88;89.13
65754;BME280;52488;47.502;18.940;2023-01-29T06:09:53;98811.06;;;-0.84;89.12
65754;BME280;52488;47.502;18.940;2023-01-29T06:10:56;98821.88;;;-0.84;88.86
65754;BME280;52488;47.502;18.940;2023-01-29T06:11:59;98812.06;;;-0.87;88.77
65754;BME280;52488;47.502;18.940;2023-01-29T06:13:02;98812.06;;;-0.87;88.77
65754;BME280;52488;47.502;18.940;2023-01-29T06:14:05;98822.34;;;-0.85;88.42
65754;BME280;52488;47.502;18.940;2023-01-29T06:15:09;98817.22;;;-0.89;88.30
65754;BME280;52488;47.502;18.940;2023-01-29T06:16:13;98824.31;;;-0.91;88.13
65754;BME280;52488;47.502;18.940;2023-01-29T06:17:16;98829.47;;;-0.88;87.99
65754;BME280;52488;47.502;18.940;2023-01-29T06:18:20;98827.25;;;-0.89;87.96
65754;BME280;52488;47.502;18.940;2023-01-29T06:19:23;98828.47;;;-0.90;88.25
65754;BME280;52488;47.502;18.940;2023-01-29T06:20:26;98831.69;;;-0.81;87.83
65754;BME280;52488;47.502;18.940;2023-01-29T06:21:29;98837.84;;;-0.69;86.84
65754;BME280;52488;47.502;18.940;2023-01-29T06:22:33;98830.47;;;-0.80;86.63
65754;BME280;52488;47.502;18.940;2023-01-29T06:23:36;98836.84;;;-0.88;86.99
65754;BME280;52488;47.502;18.940;2023-01-29T06:24:39;98839.03;;;-0.87;87.20
65754;BME280;52488;47.502;18.940;2023-01-29T06:25:42;98833.88;;;-0.85;87.08
65754;BME280;52488;47.502;18.940;2023-01-29T06:26:46;98850.78;;;-0.90;87.35
65754;BME280;52488;47.502;18.940;2023-01-29T06:27:50;98845.88;;;-0.91;87.57
65754;BME280;52488;47.502;18.940;2023-01-29T06:28:53;98849.59;;;-0.83;87.47
65754;BME280;52488;47.502;18.940;2023-01-29T06:29:56;98845.91;;;-0.80;86.86
65754;BME280;52488;47.502;18.940;2023-01-29T06:31:02;98856.69;;;-0.86;86.73
65754;BME280;52488;47.502;18.940;2023-01-29T06:32:26;98861.34;;;-0.92;86.99
65754;BME280;52488;47.502;18.940;2023-01-29T06:33:33;98867.47;;;-0.91;87.35
65754;BME280;52488;47.502;18.940;2023-01-29T06:34:36;98867.69;;;-0.95;87.45
65754;BME280;52488;47.502;18.940;2023-01-29T06:35:39;98858.88;;;-0.95;87.73
65754;BME280;52488;47.502;18.940;2023-01-29T06:36:43;98864.75;;;-0.97;87.94
65754;BME280;52488;47.502;18.940;2023-01-29T06:37:46;98861.34;;;-0.92;87.68
65754;BME280;52488;47.502;18.940;2023-01-29T06:38:49;98859.56;;;-1.00;87.89
65754;BME280;52488;47.502;18.940;2023-01-29T06:39:52;98854.94;;;-1.00;88.20
65754;BME280;52488;47.502;18.940;2023-01-29T06:40:56;98859.56;;;-1.00;88.17
65754;BME280;52488;47.502;18.940;2023-01-29T06:41:59;98856.63;;;-1.02;88.31
65754;BME280;52488;47.502;18.940;2023-01-29T06:43:02;98872.84;;;-0.97;88.28
65754;BME280;52488;47.502;18.940;2023-01-29T06:44:05;98875.34;;;-0.88;87.89